Hillburn, New York
Current Conditions -  °F | °C
As of 6:53 PM on Thursday 27 Nov 2014 (Local Time) from KCDW Reporting Station
Overcast Overcast  
Wind Chill:   Ceiling: 3700
Heat Index:   Visibility: 10mi
Dew Point: -3°   Wind: 3mph
Humidity: 75%   Direction: 280°W
Pressure: 30.04"   Gusts: NA
Location:  41.12°N, 74.17°W
Report Text: KCDW 272353Z 28003KT 10SM OVC037 01/M03 A3004 RMK AO2 SLP180 60000 T00111028 10022 20006 51012
Loading
Personal Weather Stations






























Interactive Weather Map New forecast layout! Learn more

10-Day Weather Forecast

Advertisements
Track Severe Weather on mobile